Dundas, Canada
Current Conditions -  °F | °C
As of 1:00 AM on Saturday 20 Dec 2014 (Local Time) from CYHM Reporting Station
Few Clouds Few Clouds  
Wind Chill: 15°   Ceiling: Unl
Heat Index: 21°   Visibility: 15mi
Dew Point: 16°   Wind: 5mph
Humidity: 80%   Direction: 350°N
Pressure: 30.23"   Gusts: NA
Location:  43.27°N, 79.93°W
Report Text: CYHM 200600Z 35004KT 15SM FEW030 M06/M09 A3023 RMK SC1 SC TR SLP251
Loading
Personal Weather Stations






























Interactive Weather Map New forecast layout! Learn more

10-Day Weather Forecast

Advertisements
Track Severe Weather on mobile